createdAt,value
2023-05-09T00:01:42.311Z,9.65
2023-05-09T00:06:35.487Z,10.10
2023-05-09T00:11:30.876Z,13.35
2023-05-09T00:16:24.422Z,11.25
2023-05-09T00:21:18.889Z,11.30
2023-05-09T00:26:12.376Z,8.43
2023-05-09T00:31:09.358Z,11.00
2023-05-09T00:36:02.498Z,9.50
2023-05-09T00:40:57.093Z,9.73
2023-05-09T00:45:50.913Z,8.48
2023-05-09T00:50:44.357Z,9.38
2023-05-09T00:55:37.701Z,8.82
2023-05-09T01:00:32.546Z,9.02
2023-05-09T01:05:31.768Z,13.93
2023-05-09T01:10:32.929Z,10.25
2023-05-09T01:15:32.456Z,10.38
2023-05-09T01:20:34.911Z,8.20
2023-05-09T01:25:43.600Z,8.48
2023-05-09T01:30:39.345Z,11.32
2023-05-09T01:35:37.064Z,7.82
2023-05-09T01:40:33.618Z,9.80
2023-05-09T01:45:28.222Z,9.30
2023-05-09T01:50:24.237Z,10.25
2023-05-09T01:55:19.987Z,7.32
2023-05-09T02:00:15.356Z,9.13
2023-05-09T02:05:12.914Z,7.50
2023-05-09T02:10:10.269Z,9.57
2023-05-09T02:15:04.061Z,10.32
2023-05-09T02:19:57.388Z,11.35
2023-05-09T02:24:50.940Z,10.05
2023-05-09T02:29:56.366Z,8.20
2023-05-09T02:34:52.266Z,10.27
2023-05-09T02:39:45.652Z,9.52
2023-05-09T02:44:39.951Z,9.60
2023-05-09T02:49:34.724Z,8.88
2023-05-09T02:54:29.901Z,9.70
2023-05-09T02:59:23.210Z,6.28
2023-05-09T03:04:16.688Z,9.38
2023-05-09T03:09:11.413Z,8.70
2023-05-09T03:14:06.407Z,9.65
2023-05-09T03:18:59.678Z,7.97
2023-05-09T03:23:53.090Z,8.77
2023-05-09T03:28:48.963Z,7.00
2023-05-09T03:33:42.509Z,9.25
2023-05-09T03:38:36.435Z,7.93
2023-05-09T03:43:29.985Z,9.45
2023-05-09T03:48:24.614Z,8.88
2023-05-09T03:53:20.629Z,9.68
2023-05-09T03:58:16.100Z,8.65
2023-05-09T04:03:10.867Z,8.38
2023-05-09T04:08:09.720Z,9.00
2023-05-09T04:13:03.263Z,9.05
2023-05-09T04:17:58.020Z,12.40
2023-05-09T04:22:53.290Z,8.68
2023-05-09T04:27:48.685Z,8.32
2023-05-09T04:32:46.052Z,8.15
2023-05-09T04:37:40.161Z,9.07
2023-05-09T04:42:33.889Z,10.23
2023-05-09T04:47:28.934Z,9.13
2023-05-09T04:52:24.795Z,10.05
2023-05-09T04:57:19.171Z,8.90
2023-05-09T05:02:18.334Z,9.73
2023-05-09T05:07:14.124Z,8.48
2023-05-09T05:12:09.758Z,7.25
2023-05-09T05:17:04.678Z,9.30
2023-05-09T05:22:04.451Z,7.80
2023-05-09T05:27:00.224Z,7.10
2023-05-09T05:31:54.215Z,11.35
2023-05-09T13:06:34.570Z,5.68
2023-05-09T13:11:28.083Z,5.85
2023-05-09T13:16:21.363Z,5.57
2023-05-09T13:21:14.481Z,7.60
2023-05-09T13:26:09.126Z,5.57
2023-05-09T13:31:19.416Z,5.00
2023-05-09T13:41:06.168Z,6.53
2023-05-09T13:46:01.147Z,4.30
2023-05-09T13:50:54.572Z,5.40
2023-05-09T13:55:47.732Z,6.80
2023-05-09T14:00:41.742Z,6.88
2023-05-09T14:05:36.200Z,5.25
2023-05-09T14:10:29.204Z,8.57
2023-05-09T14:15:22.438Z,6.65
2023-05-09T14:20:16.289Z,6.43
2023-05-09T14:25:11.551Z,6.68
2023-05-09T14:30:07.745Z,7.35
2023-05-09T14:35:00.963Z,9.38
2023-05-09T14:39:56.702Z,6.82
2023-05-09T14:44:51.237Z,9.07
2023-05-09T14:49:48.645Z,6.63
2023-05-09T14:54:42.330Z,6.25
2023-05-09T14:59:37.076Z,8.90
2023-05-09T15:04:31.930Z,6.38
2023-05-09T15:09:25.091Z,7.40
2023-05-09T15:14:18.317Z,5.97
2023-05-09T15:19:12.610Z,6.57
2023-05-09T15:24:08.138Z,8.05
2023-05-09T15:29:01.345Z,7.45
2023-05-09T15:33:54.528Z,7.47
2023-05-09T15:38:49.724Z,7.22
2023-05-09T15:43:44.673Z,4.80
2023-05-09T15:48:37.839Z,4.50
2023-05-09T15:53:31.023Z,4.60
2023-05-09T15:58:24.107Z,6.43
2023-05-09T16:03:21.091Z,4.97
2023-05-09T16:08:14.503Z,7.68
2023-05-09T16:13:08.825Z,5.47
2023-05-09T16:18:02.103Z,5.32
2023-05-09T16:22:56.803Z,6.28
2023-05-09T16:27:49.973Z,6.15
2023-05-09T16:32:43.699Z,5.57
2023-05-09T16:37:36.956Z,5.10
2023-05-09T16:42:31.547Z,7.15
2023-05-09T16:47:24.713Z,5.90
2023-05-09T16:52:18.140Z,5.30
2023-05-09T16:57:11.317Z,8.55
2023-05-09T17:02:05.968Z,6.75
2023-05-09T17:06:59.372Z,8.30
2023-05-09T17:11:52.496Z,8.23
2023-05-09T17:16:45.668Z,5.53
2023-05-09T17:21:41.801Z,7.35
2023-05-09T17:26:35.167Z,6.43
2023-05-09T17:31:28.433Z,7.50
2023-05-09T17:36:21.909Z,8.80
2023-05-09T17:41:16.577Z,6.43
2023-05-09T17:46:11.198Z,8.10
2023-05-09T17:51:15.621Z,7.97
2023-05-09T17:56:11.425Z,8.00
2023-05-09T18:01:06.004Z,7.78
2023-05-09T18:06:00.468Z,7.95
2023-05-09T18:10:54.774Z,8.05
2023-05-09T18:15:48.180Z,7.03
2023-05-09T18:20:42.819Z,9.35
2023-05-09T18:25:36.239Z,6.57
2023-05-09T18:30:29.439Z,10.57
2023-05-09T18:35:22.770Z,7.60
2023-05-09T18:40:17.822Z,8.52
2023-05-09T18:45:12.053Z,9.60
2023-05-09T18:50:07.235Z,7.88
2023-05-09T18:55:00.650Z,8.32
2023-05-09T18:59:56.069Z,8.93
2023-05-09T19:04:50.594Z,9.77
2023-05-09T19:09:43.789Z,10.43
2023-05-09T19:14:37.920Z,11.80
2023-05-09T19:19:42.225Z,9.43
2023-05-09T19:24:35.428Z,8.88
2023-05-09T19:29:28.673Z,8.55
2023-05-09T19:34:23.035Z,8.65
2023-05-09T19:39:18.065Z,8.82
2023-05-09T19:44:11.282Z,11.25
2023-05-09T19:49:04.944Z,6.88
2023-05-09T19:53:58.174Z,9.48
2023-05-09T19:58:52.706Z,8.38
2023-05-09T20:03:47.941Z,9.65
2023-05-09T20:08:41.310Z,8.25
2023-05-09T20:13:34.470Z,8.60
2023-05-09T20:18:29.080Z,10.43
2023-05-09T20:23:22.463Z,10.88
2023-05-09T20:28:20.143Z,7.40
2023-05-09T20:33:13.901Z,9.85
2023-05-09T20:38:09.476Z,9.05
2023-05-09T20:43:08.784Z,9.95
2023-05-09T20:48:04.053Z,8.18
2023-05-09T20:52:57.127Z,9.93
2023-05-09T20:57:51.756Z,9.65
2023-05-09T21:02:45.034Z,12.27
2023-05-09T21:07:38.257Z,9.10
2023-05-09T21:12:34.527Z,12.30
2023-05-09T21:17:34.009Z,10.23
2023-05-09T21:22:27.144Z,9.57
2023-05-09T21:27:20.408Z,9.57
2023-05-09T21:32:13.470Z,11.32
2023-05-09T21:37:08.047Z,10.95
2023-05-09T21:42:01.270Z,13.15
2023-05-09T21:46:56.131Z,12.02
2023-05-09T21:51:49.315Z,11.55
2023-05-09T21:56:43.844Z,13.25
2023-05-09T22:01:37.160Z,9.63
2023-05-09T22:06:30.358Z,10.75
2023-05-09T22:11:23.488Z,12.85
2023-05-09T22:16:18.749Z,11.27
2023-05-09T22:21:12.712Z,11.43
2023-05-09T22:26:06.209Z,11.45
2023-05-09T22:30:59.501Z,9.38
2023-05-09T22:35:54.067Z,11.95
2023-05-09T22:40:47.304Z,11.63
2023-05-09T22:45:40.590Z,13.15
2023-05-09T22:50:35.145Z,10.15
2023-05-09T22:55:30.075Z,9.98
2023-05-09T23:00:24.581Z,12.70
2023-05-09T23:05:20.326Z,11.70
2023-05-09T23:10:13.747Z,12.13
2023-05-09T23:15:11.592Z,11.50
2023-05-09T23:20:05.482Z,10.73
2023-05-09T23:24:59.773Z,11.70
2023-05-09T23:29:52.913Z,9.77
2023-05-09T23:34:47.594Z,11.55
2023-05-09T23:39:41.944Z,9.52
2023-05-09T23:44:35.449Z,11.23
2023-05-09T23:49:29.087Z,10.48
2023-05-09T23:54:24.533Z,12.02
2023-05-09T23:59:17.727Z,11.20
